Time;durP1;ratioP1;P1;durP2;ratioP2;P2;SDS_P1;SDS_P2;PMS_P1;PMS_P2;Temp;Humidity;BMP_temperature;BMP_pressure;BME280_temperature;BME280_humidity;BME280_pressure;Samples;Min_cycle;Max_cycle;Signal;HPM_P1;HPM_P2
2022/10/26 00:00:10;;;;;;;17.92;16.20;;;;;;;29.30;73.63;100890.97;5079989;27;66880;-37
2022/10/26 00:02:42;;;;;;;16.88;15.35;;;;;;;29.32;74.90;100905.09;5089415;27;70303;-37
2022/10/26 00:05:13;;;;;;;18.23;16.55;;;;;;;29.36;74.88;100912.59;5081067;27;67293;-38
2022/10/26 00:07:45;;;;;;;20.02;16.38;;;;;;;29.37;75.14;100913.41;5088483;27;69662;-39
2022/10/26 00:10:16;;;;;;;17.83;16.25;;;;;;;29.42;74.90;100910.94;5093897;27;66416;-38
2022/10/26 00:12:51;;;;;;;17.90;16.10;;;;;;;28.84;75.33;100816.19;5097346;27;69638;-38
2022/10/26 00:15:22;;;;;;;17.95;16.13;;;;;;;29.45;76.57;100905.09;5098482;27;66558;-38
2022/10/26 00:17:53;;;;;;;17.52;14.93;;;;;;;29.42;77.06;100902.81;5087804;27;69804;-39
2022/10/26 00:20:24;;;;;;;21.25;13.73;;;;;;;29.38;77.67;100891.56;5094052;27;65624;-39
2022/10/26 00:22:55;;;;;;;15.73;14.07;;;;;;;29.53;78.59;100917.53;5098762;27;69369;-38
2022/10/26 00:25:26;;;;;;;15.93;13.55;;;;;;;29.50;77.27;100907.16;5089672;27;66984;-37
2022/10/26 00:27:57;;;;;;;14.90;13.63;;;;;;;29.57;77.78;100918.78;5092737;27;70812;-37
2022/10/26 00:30:27;;;;;;;15.88;14.27;;;;;;;29.59;76.96;100917.53;5087581;27;66025;-37
2022/10/26 00:32:59;;;;;;;19.17;14.10;;;;;;;29.59;76.65;100931.06;5106127;27;69929;-37
2022/10/26 00:35:30;;;;;;;15.23;13.88;;;;;;;29.61;77.75;100936.22;5094160;27;67253;-38
2022/10/26 00:38:14;;;;;;;14.77;13.40;;;;;;;29.71;74.40;100944.78;5097371;27;69699;-40
2022/10/26 00:40:46;;;;;;;13.85;12.13;;;;;;;29.75;72.86;100931.66;5093112;27;66635;-38
2022/10/26 00:43:22;;;;;;;13.35;11.80;;;;;;;29.81;72.68;100931.66;5089623;27;69982;-39
2022/10/26 00:45:56;;;;;;;13.25;11.95;;;;;;;29.43;72.35;100863.94;5089136;27;66296;-37
2022/10/26 00:48:56;;;;;;;12.20;11.40;;;;;;;29.16;72.52;100836.13;5094330;27;70508;-37
2022/10/26 00:51:34;;;;;;;12.63;10.68;;;;;;;29.70;71.92;100896.31;5088084;27;66826;-38
2022/10/26 00:54:09;;;;;;;11.55;10.75;;;;;;;29.42;71.21;100845.22;5084195;27;69725;-37
2022/10/26 00:56:41;;;;;;;11.60;10.65;;;;;;;29.98;70.97;100952.84;5089166;27;66218;-37
2022/10/26 00:59:15;;;;;;;14.63;10.52;;;;;;;29.45;71.37;100851.03;5099453;27;69679;-38
2022/10/26 01:01:48;;;;;;;12.05;10.95;;;;;;;30.00;71.33;100939.91;5094246;27;66230;-38
2022/10/26 01:04:19;;;;;;;14.63;10.40;;;;;;;30.09;70.69;100948.63;5088627;27;70431;-39
2022/10/26 01:06:52;;;;;;;11.70;10.57;;;;;;;29.64;70.42;100879.06;5098099;27;65665;-38
2022/10/26 01:09:24;;;;;;;11.38;10.55;;;;;;;30.14;70.37;100960.47;5095517;27;70070;-38
2022/10/26 01:11:54;;;;;;;10.82;10.07;;;;;;;30.07;70.37;100951.56;5097863;27;66838;-38
2022/10/26 01:14:27;;;;;;;10.43;9.70;;;;;;;30.04;70.74;100941.19;5108783;27;70572;-38
2022/10/26 01:17:25;;;;;;;11.23;10.30;;;;;;;30.14;70.40;100968.59;5097670;27;65750;-38
2022/10/26 01:20:18;;;;;;;9.95;9.25;;;;;;;30.16;70.21;100965.69;5090673;27;70484;-37
2022/10/26 01:23:16;;;;;;;10.55;9.65;;;;;;;30.10;70.59;100964.66;5086886;27;66540;-36
2022/10/26 01:26:11;;;;;;;9.82;9.15;;;;;;;30.11;70.21;100969.00;5094655;27;70230;-38
2022/10/26 01:29:15;;;;;;;10.15;9.35;;;;;;;30.14;70.59;100974.00;5094668;27;43222;-41
2022/10/26 01:31:57;;;;;;;10.32;9.25;;;;;;;30.20;70.27;100973.16;5109065;27;70367;-38
2022/10/26 01:34:35;;;;;;;10.82;9.85;;;;;;;29.84;69.80;100903.38;5105208;27;66411;-38
2022/10/26 01:37:13;;;;;;;9.88;8.95;;;;;;;30.34;69.75;100978.53;5095315;27;70492;-38
2022/10/26 01:39:57;;;;;;;9.82;8.85;;;;;;;30.10;69.96;100945.72;5097400;27;66053;-38
2022/10/26 01:42:31;;;;;;;9.32;8.52;;;;;;;30.40;69.57;100996.66;5096210;27;70473;-37
2022/10/26 01:45:07;;;;;;;9.93;9.15;;;;;;;30.38;69.50;100980.59;5096360;27;66373;-37
2022/10/26 01:47:39;;;;;;;17.55;9.35;;;;;;;30.45;69.58;100986.84;5093988;27;69003;-37
2022/10/26 01:50:11;;;;;;;9.63;8.80;;;;;;;30.45;69.27;100986.84;5083511;27;66958;-37
2022/10/26 01:52:42;;;;;;;9.95;8.98;;;;;;;30.44;69.15;100984.34;5086728;27;70624;-38
2022/10/26 01:55:44;;;;;;;10.20;9.15;;;;;;;30.38;69.14;100991.44;5084030;27;66398;-38
2022/10/26 01:58:34;;;;;;;17.23;9.32;;;;;;;30.44;69.07;100995.16;5083669;27;69914;-37
2022/10/26 02:01:14;;;;;;;10.20;8.77;;;;;;;30.49;69.01;100989.94;5087732;27;66258;-37
2022/10/26 02:03:50;;;;;;;10.13;9.07;;;;;;;30.09;68.91;100918.88;5087755;27;70366;-37
2022/10/26 02:06:26;;;;;;;10.07;8.80;;;;;;;30.58;68.66;101002.19;5083822;27;66343;-38
2022/10/26 02:09:33;;;;;;;10.07;9.10;;;;;;;30.61;68.63;101001.75;5078892;27;70162;-36
2022/10/26 02:12:20;;;;;;;10.60;9.15;;;;;;;30.17;68.57;100924.91;5057768;27;66636;-38
2022/10/26 02:15:04;;;;;;;12.82;8.43;;;;;;;30.63;68.55;101010.47;5080030;27;69493;-38
2022/10/26 02:17:58;;;;;;;18.23;9.25;;;;;;;30.55;68.92;101005.31;5083983;27;65942;-38
2022/10/26 02:20:40;;;;;;;11.73;8.60;;;;;;;30.24;68.06;100925.72;5085163;27;70092;-39
2022/10/26 02:23:14;;;;;;;8.88;8.00;;;;;;;30.15;68.09;100909.91;5081113;27;65605;-38
2022/10/26 02:25:54;;;;;;;9.95;7.75;;;;;;;30.45;68.03;100948.09;5083889;27;69868;-38
2022/10/26 02:28:36;;;;;;;8.82;7.85;;;;;;;30.21;67.83;100909.88;5080326;27;67220;-38
2022/10/26 02:31:08;;;;;;;11.43;8.27;;;;;;;30.79;67.89;100997.50;5086993;27;70588;-38
2022/10/26 02:33:43;;;;;;;8.73;7.80;;;;;;;30.83;67.99;101004.16;5090163;27;66107;-38
2022/10/26 02:36:29;;;;;;;7.88;7.13;;;;;;;30.34;68.01;100925.28;5095988;27;69711;-38
2022/10/26 02:39:02;;;;;;;13.20;7.70;;;;;;;30.84;67.35;100990.41;5086701;27;66072;-38
2022/10/26 02:41:36;;;;;;;8.43;7.55;;;;;;;30.90;67.34;100991.44;5090638;27;70494;-38
2022/10/26 02:44:39;;;;;;;8.65;7.60;;;;;;;30.79;67.53;100998.34;5104060;27;66329;-38
2022/10/26 02:47:11;;;;;;;7.82;7.13;;;;;;;30.92;67.34;101003.72;5089262;27;70067;-37
2022/10/26 02:49:43;;;;;;;8.50;6.90;;;;;;;30.88;67.56;100988.09;5096573;27;65793;-37
2022/10/26 02:52:39;;;;;;;9.93;7.53;;;;;;;30.91;67.58;101001.19;5095609;27;70032;-37
2022/10/26 02:55:26;;;;;;;8.00;7.30;;;;;;;30.45;67.46;100921.03;5096915;27;66176;-38
2022/10/26 02:58:06;;;;;;;7.70;7.15;;;;;;;30.48;67.25;100904.38;5086397;27;70729;-37
2022/10/26 03:00:57;;;;;;;8.15;7.32;;;;;;;30.11;66.66;100839.16;5082711;27;67260;-37
2022/10/26 03:03:30;;;;;;;10.10;7.95;;;;;;;30.97;66.88;100977.81;5094625;27;70399;-37
2022/10/26 03:06:00;;;;;;;;;;;;;;;30.70;68.32;100984.22;5096031;27;66458;-37
2022/10/26 03:08:31;;;;;;;11.43;7.30;;;;;;;30.89;67.19;100960.78;5094691;27;70701;-37
2022/10/26 03:11:03;;;;;;;9.57;7.15;;;;;;;31.08;66.67;100980.66;5098298;27;65267;-38
2022/10/26 03:13:34;;;;;;;7.77;7.10;;;;;;;31.11;67.08;100979.41;5098346;27;69832;-37
2022/10/26 03:16:05;;;;;;;7.78;7.10;;;;;;;31.13;66.39;100980.00;5088294;27;67469;-38
2022/10/26 03:18:36;;;;;;;;;;;;;;;30.78;67.87;100975.00;5097389;27;69410;-38
2022/10/26 03:21:07;;;;;;;7.20;6.60;;;;;;;31.11;66.58;100968.56;5099395;27;67119;-37
2022/10/26 03:23:38;;;;;;;7.15;6.65;;;;;;;31.15;66.44;100959.78;5100784;27;69637;-38
2022/10/26 03:26:09;;;;;;;;;;;;;;;30.84;67.27;100960.63;5101500;27;66619;-39
2022/10/26 03:28:41;;;;;;;7.55;6.85;;;;;;;31.12;66.21;100949.38;5093742;27;69902;-39
2022/10/26 03:31:12;;;;;;;7.63;6.93;;;;;;;30.66;66.55;100860.31;5099087;27;66021;-38
2022/10/26 03:33:45;;;;;;;8.25;6.97;;;;;;;31.26;65.86;100952.81;5098329;27;70374;-38
2022/10/26 03:36:17;;;;;;;8.75;7.15;;;;;;;31.27;66.46;100951.75;5089711;27;68024;-37
2022/10/26 03:38:48;;;;;;;7.77;7.00;;;;;;;31.25;66.27;100931.34;5100860;27;69831;-37
2022/10/26 03:41:47;;;;;;;7.88;7.20;;;;;;;31.30;65.91;100934.22;5094783;27;67393;-37
2022/10/26 03:44:18;;;;;;;7.22;6.55;;;;;;;31.32;65.69;100932.94;5097339;27;70505;-37
2022/10/26 03:46:49;;;;;;;6.93;6.50;;;;;;;31.32;65.94;100932.13;5095990;27;65505;-38
2022/10/26 03:49:20;;;;;;;8.05;6.53;;;;;;;31.29;65.86;100921.72;5096049;27;70230;-37
2022/10/26 03:51:52;;;;;;;7.55;6.88;;;;;;;31.32;65.84;100921.28;5093613;27;66884;-39
2022/10/26 03:54:23;;;;;;;7.25;6.55;;;;;;;31.39;65.55;100922.06;5095732;27;68945;-39
2022/10/26 03:56:54;;;;;;;7.80;6.97;;;;;;;31.40;65.82;100921.03;5095121;27;66069;-37
2022/10/26 03:59:27;;;;;;;6.55;6.03;;;;;;;31.43;65.68;100917.88;5095105;27;70228;-37
2022/10/26 04:01:58;;;;;;;7.78;6.93;;;;;;;31.45;65.54;100914.94;5096804;27;66783;-37
2022/10/26 04:04:29;;;;;;;7.40;6.70;;;;;;;31.38;65.58;100894.13;5097724;27;70162;-37
2022/10/26 04:07:03;;;;;;;7.03;6.40;;;;;;;31.46;65.86;100901.16;5091108;27;66914;-37
2022/10/26 04:09:34;;;;;;;8.85;6.65;;;;;;;31.49;65.76;100900.72;5099353;27;70895;-37
2022/10/26 04:12:06;;;;;;;6.55;6.05;;;;;;;31.50;65.63;100894.22;5098724;27;66308;-37
2022/10/26 04:14:37;;;;;;;6.95;6.38;;;;;;;31.52;65.68;100877.75;5080563;27;70485;-38
2022/10/26 04:17:08;;;;;;;7.05;6.47;;;;;;;31.55;65.77;100883.53;5087106;27;66142;-38
2022/10/26 04:19:39;;;;;;;6.72;6.13;;;;;;;31.51;65.45;100868.78;5090984;27;69169;-37
2022/10/26 04:22:11;;;;;;;6.68;6.18;;;;;;;31.58;65.42;100855.97;5097262;27;66165;-38
2022/10/26 04:24:42;;;;;;;6.47;5.95;;;;;;;31.65;65.31;100857.78;5097052;27;70754;-38
2022/10/26 04:27:16;;;;;;;6.80;6.30;;;;;;;31.68;65.09;100860.03;5099703;27;66597;-37
2022/10/26 04:29:48;;;;;;;7.40;6.78;;;;;;;31.68;65.35;100850.03;5088688;27;70917;-38
2022/10/26 04:32:19;;;;;;;6.30;5.70;;;;;;;31.71;65.35;100854.19;5096537;27;65409;-39
2022/10/26 04:34:53;;;;;;;5.95;5.43;;;;;;;31.75;65.03;100844.53;5083278;27;70081;-38
2022/10/26 04:37:24;;;;;;;7.22;6.63;;;;;;;31.71;64.89;100837.91;5091632;27;65922;-37
2022/10/26 04:39:55;;;;;;;6.70;6.20;;;;;;;31.77;64.97;100832.38;5097860;27;69903;-38
2022/10/26 04:42:26;;;;;;;6.75;6.22;;;;;;;31.75;64.74;100810.09;5097090;27;66233;-37
2022/10/26 04:44:57;;;;;;;7.05;6.55;;;;;;;31.73;64.80;100797.81;5099106;27;70426;-37
2022/10/26 04:47:28;;;;;;;6.60;6.03;;;;;;;31.83;64.75;100798.94;5100239;27;66483;-38
2022/10/26 04:49:59;;;;;;;6.57;6.05;;;;;;;31.90;64.63;100804.28;5087308;27;69803;-37
2022/10/26 04:52:30;;;;;;;6.78;6.18;;;;;;;31.92;64.51;100796.75;5093311;27;67484;-37
2022/10/26 04:55:04;;;;;;;7.03;6.47;;;;;;;31.96;64.56;100786.28;5098914;27;69214;-38
2022/10/26 04:57:36;;;;;;;7.40;6.22;;;;;;;31.93;64.66;100776.72;5084568;27;66690;-38
2022/10/26 05:00:07;;;;;;;6.53;6.07;;;;;;;31.95;64.53;100776.47;5090783;27;70081;-38
2022/10/26 05:02:38;;;;;;;7.45;6.95;;;;;;;31.97;64.44;100761.63;5095218;27;66478;-40
2022/10/26 05:05:10;;;;;;;6.30;5.90;;;;;;;31.99;64.32;100761.41;5098226;27;69961;-39
2022/10/26 05:07:43;;;;;;;6.82;6.32;;;;;;;32.01;64.28;100762.84;5092242;27;65831;-39
2022/10/26 05:10:15;;;;;;;;;;;;;;;31.68;64.82;100754.28;5085763;27;69964;-39
2022/10/26 05:12:51;;;;;;;7.10;6.50;;;;;;;31.97;64.22;100734.50;5082490;27;66109;-37
2022/10/26 05:15:23;;;;;;;7.60;7.05;;;;;;;32.01;64.32;100734.84;5083079;27;70120;-39
2022/10/26 05:17:55;;;;;;;;;;;;;;;31.73;64.91;100732.72;5082936;27;66084;-40
2022/10/26 05:20:30;;;;;;;6.88;6.28;;;;;;;32.03;64.30;100736.28;5080552;27;69128;-38
2022/10/26 05:23:03;;;;;;;7.30;6.60;;;;;;;32.11;64.21;100742.44;5079961;27;66751;-37
2022/10/26 05:25:36;;;;;;;7.07;6.57;;;;;;;32.12;63.77;100730.53;5082016;27;70520;-38
2022/10/26 05:28:12;;;;;;;7.18;6.68;;;;;;;31.78;63.55;100667.78;5082329;27;66493;-38
2022/10/26 05:30:45;;;;;;;6.70;6.30;;;;;;;31.65;63.87;100644.41;5082261;27;70306;-37
2022/10/26 05:33:16;;;;;;;6.97;6.45;;;;;;;32.17;64.05;100717.09;5085712;27;66020;-38
2022/10/26 05:35:47;;;;;;;7.88;7.15;;;;;;;32.18;63.93;100707.88;5079965;27;71623;-38
2022/10/26 05:38:18;;;;;;;7.43;6.93;;;;;;;32.20;63.67;100711.19;5085915;27;66226;-39
2022/10/26 05:40:51;;;;;;;7.07;6.45;;;;;;;32.22;63.89;100698.22;5082523;27;70479;-37
2022/10/26 05:43:26;;;;;;;7.53;6.82;;;;;;;31.75;63.65;100608.56;5083600;27;66340;-37
2022/10/26 05:45:57;;;;;;;7.65;6.95;;;;;;;32.16;63.51;100672.03;5086874;27;69275;-39
2022/10/26 05:48:28;;;;;;;8.35;6.90;;;;;;;32.27;63.88;100691.03;5081593;27;66257;-39
2022/10/26 05:51:01;;;;;;;7.55;6.95;;;;;;;32.17;63.43;100668.22;5081717;27;69626;-39
2022/10/26 05:53:32;;;;;;;7.50;6.90;;;;;;;32.29;63.63;100677.22;5086527;27;66539;-39
2022/10/26 05:56:14;;;;;;;7.28;6.65;;;;;;;32.32;63.22;100676.75;5095604;27;70294;-39
2022/10/26 05:58:48;;;;;;;6.95;6.55;;;;;;;32.19;63.70;100645.22;5101412;27;66114;-38
2022/10/26 06:01:39;;;;;;;7.35;6.75;;;;;;;32.34;63.45;100660.22;5098265;27;70398;-38
2022/10/26 06:04:18;;;;;;;7.38;6.88;;;;;;;32.33;63.29;100651.25;5092391;27;66545;-38
2022/10/26 06:06:53;;;;;;;7.30;6.75;;;;;;;32.22;63.38;100627.66;5097992;27;70291;-38
2022/10/26 06:09:25;;;;;;;6.95;6.55;;;;;;;32.37;63.51;100636.13;5102557;27;65147;-38
2022/10/26 06:11:56;;;;;;;7.97;7.25;;;;;;;32.39;63.36;100634.03;5106197;27;70323;-38
2022/10/26 06:14:27;;;;;;;7.15;6.65;;;;;;;32.40;63.36;100635.69;5094651;27;65122;-38
2022/10/26 06:17:36;;;;;;;7.45;6.85;;;;;;;32.37;63.28;100635.31;5096002;27;69291;-38
2022/10/26 06:20:33;;;;;;;7.47;6.97;;;;;;;32.42;63.21;100630.81;5075779;27;67118;-38
2022/10/26 06:23:20;;;;;;;7.65;7.05;;;;;;;32.44;63.15;100627.88;5077367;27;70145;-38
2022/10/26 06:26:17;;;;;;;7.45;6.85;;;;;;;32.37;63.10;100617.13;5097311;27;66445;-39
2022/10/26 06:29:18;;;;;;;7.40;6.90;;;;;;;32.34;63.03;100600.50;5094456;27;70206;-37
2022/10/26 06:31:49;;;;;;;7.40;6.97;;;;;;;32.47;63.13;100603.84;5097493;27;66639;-38
2022/10/26 06:34:28;;;;;;;8.17;7.33;;;;;;;31.94;62.92;100512.50;5097544;27;71184;-37
2022/10/26 06:37:00;;;;;;;7.38;6.80;;;;;;;32.53;62.93;100595.81;5091750;27;66335;-37
2022/10/26 06:39:35;;;;;;;;;;;;;;;32.22;63.90;100589.66;5097011;27;70009;-37
2022/10/26 06:42:08;;;;;;;8.43;7.68;;;;;;;32.31;62.78;100550.22;5097265;27;65562;-38
2022/10/26 06:44:39;;;;;;;7.50;7.10;;;;;;;32.56;63.12;100579.03;5094499;27;70652;-37
2022/10/26 06:47:46;;;;;;;;;;;;;;;32.26;63.72;100582.69;5092673;27;65773;-37
2022/10/26 06:50:33;;;;;;;7.07;6.68;;;;;;;32.52;62.83;100572.44;5057638;28;70281;-47
2022/10/26 06:53:35;;;;;;;7.80;6.90;;;;;;;32.46;63.01;100574.22;5093503;27;65849;-38
2022/10/26 06:56:06;;;;;;;8.43;6.97;;;;;;;32.59;62.99;100565.78;5092801;27;70183;-39
2022/10/26 06:58:39;;;;;;;7.50;7.00;;;;;;;32.58;62.70;100563.34;5083891;27;66500;-38
2022/10/26 07:01:11;;;;;;;7.22;6.70;;;;;;;32.68;62.71;100560.81;5092068;27;70056;-37
2022/10/26 07:03:43;;;;;;;7.78;7.10;;;;;;;32.70;62.62;100562.22;5091832;27;66274;-37
2022/10/26 07:06:14;;;;;;;10.77;7.05;;;;;;;32.67;62.66;100542.88;5091429;27;70092;-38
2022/10/26 07:08:45;;;;;;;13.53;7.53;;;;;;;32.73;62.68;100544.63;5099721;27;65885;-38
2022/10/26 07:11:16;;;;;;;7.38;6.65;;;;;;;32.76;62.41;100551.47;5098166;27;69042;-39
2022/10/26 07:13:49;;;;;;;8.63;7.40;;;;;;;32.78;62.63;100542.00;5099822;27;66643;-38
2022/10/26 07:16:22;;;;;;;8.73;7.18;;;;;;;32.75;62.47;100534.34;5100859;27;70113;-38
2022/10/26 07:18:52;;;;;;;14.73;7.55;;;;;;;32.72;62.49;100534.84;5099169;27;66198;-39
2022/10/26 07:21:24;;;;;;;17.17;8.25;;;;;;;32.74;62.48;100535.44;5097890;27;70890;-37
2022/10/26 07:23:55;;;;;;;26.63;9.40;;;;;;;32.63;62.35;100520.00;5086256;27;66508;-37
2022/10/26 07:26:27;;;;;;;24.52;8.75;;;;;;;32.85;62.22;100550.84;5081092;27;70080;-38
2022/10/26 07:28:58;;;;;;;29.60;9.17;;;;;;;32.86;62.53;100546.25;5087105;27;65815;-38
2022/10/26 07:31:29;;;;;;;46.90;9.00;;;;;;;32.74;62.21;100527.28;5091962;27;70099;-39
2022/10/26 07:34:01;;;;;;;25.80;8.73;;;;;;;32.88;62.38;100544.13;5097393;27;65119;-37
2022/10/26 07:36:35;;;;;;;24.53;9.60;;;;;;;32.88;62.21;100544.94;5093446;27;70484;-38
2022/10/26 07:39:06;;;;;;;20.50;9.18;;;;;;;32.88;62.29;100544.94;5086860;27;66759;-37
2022/10/26 07:41:38;;;;;;;28.52;8.95;;;;;;;32.85;62.23;100534.56;5095369;27;69978;-38
2022/10/26 07:44:09;;;;;;;25.80;9.07;;;;;;;32.89;62.08;100535.72;5089498;27;65573;-38
2022/10/26 07:46:40;;;;;;;23.02;9.55;;;;;;;32.89;62.17;100527.56;5099837;27;70352;-37
2022/10/26 07:49:11;;;;;;;27.45;9.13;;;;;;;32.88;62.21;100527.81;5097395;27;66527;-37
2022/10/26 07:51:47;;;;;;;21.20;9.32;;;;;;;32.92;62.21;100542.56;5096267;27;69824;-37
2022/10/26 07:54:18;;;;;;;28.33;10.00;;;;;;;32.93;62.06;100536.88;5097719;27;66206;-38
2022/10/26 07:56:49;;;;;;;21.17;8.90;;;;;;;32.87;61.89;100518.00;5087770;27;70028;-37
2022/10/26 07:59:20;;;;;;;25.50;9.97;;;;;;;32.94;62.15;100532.28;5093062;27;65319;-39
2022/10/26 08:01:52;;;;;;;26.02;9.75;;;;;;;32.94;62.47;100537.72;5095109;27;70104;-38
2022/10/26 08:04:32;;;;;;;29.75;9.52;;;;;;;32.98;62.02;100543.47;5096376;27;66824;-39
2022/10/26 08:07:03;;;;;;;35.08;10.20;;;;;;;32.88;62.11;100523.19;5095268;27;69544;-37
2022/10/26 08:09:33;;;;;;;34.78;10.20;;;;;;;32.98;61.97;100532.59;5099425;27;66610;-38
2022/10/26 08:12:05;;;;;;;33.17;10.90;;;;;;;32.86;62.05;100519.91;5097349;27;70854;-38
2022/10/26 08:14:36;;;;;;;41.03;9.07;;;;;;;32.99;62.20;100528.81;5098992;27;66343;-38
2022/10/26 08:17:07;;;;;;;19.25;8.73;;;;;;;32.98;62.02;100527.16;5098136;27;69986;-38
2022/10/26 08:19:38;;;;;;;30.70;10.00;;;;;;;32.97;62.27;100517.38;5098237;27;66511;-37
2022/10/26 08:22:09;;;;;;;24.10;8.68;;;;;;;32.99;62.23;100517.94;5096937;27;70341;-38
2022/10/26 08:24:42;;;;;;;20.00;8.67;;;;;;;32.99;62.38;100512.50;5100064;27;65499;-38
2022/10/26 08:27:14;;;;;;;26.42;8.25;;;;;;;32.80;62.35;100482.84;5097265;27;69849;-37
2022/10/26 08:29:45;;;;;;;16.88;8.38;;;;;;;32.98;62.56;100516.31;5099673;27;66098;-37
2022/10/26 08:32:16;;;;;;;12.27;8.15;;;;;;;32.97;62.36;100520.09;5099985;27;70122;-37
2022/10/26 08:34:46;;;;;;;24.80;8.70;;;;;;;32.97;62.36;100520.09;5095522;27;66079;-37
2022/10/26 08:37:17;;;;;;;24.05;7.53;;;;;;;32.92;62.22;100502.63;5099715;27;69767;-37
2022/10/26 08:39:48;;;;;;;21.38;8.05;;;;;;;32.99;62.42;100515.22;5097112;27;65757;-40
2022/10/26 08:42:42;;;;;;;16.15;7.72;;;;;;;32.85;62.36;100488.38;5090996;27;70305;-37
2022/10/26 08:45:28;;;;;;;16.63;8.20;;;;;;;33.00;62.13;100500.63;5096270;27;66371;-38
2022/10/26 08:48:17;;;;;;;9.23;7.20;;;;;;;32.51;62.22;100422.25;5095811;27;69421;-37
2022/10/26 08:50:55;;;;;;;21.08;8.30;;;;;;;33.01;62.03;100497.63;5097528;27;66734;-38
2022/10/26 08:53:36;;;;;;;23.90;7.32;;;;;;;32.87;62.05;100478.06;5098578;27;70342;-37
2022/10/26 08:56:16;;;;;;;34.63;8.32;;;;;;;32.57;62.00;100423.19;5094330;27;66538;-39
2022/10/26 08:59:20;;;;;;;20.45;8.30;;;;;;;33.03;61.87;100519.97;5097892;27;69817;-38
2022/10/26 09:01:51;;;;;;;33.80;9.07;;;;;;;33.08;62.19;100517.34;5085557;27;65370;-37
2022/10/26 09:04:32;;;;;;;39.10;9.70;;;;;;;33.06;61.97;100518.66;5098466;27;70389;-39
2022/10/26 09:07:21;;;;;;;42.80;10.02;;;;;;;33.10;62.21;100519.84;5093890;27;65473;-38
2022/10/26 09:10:33;;;;;;;63.53;12.35;;;;;;;32.52;62.07;100442.13;5085140;27;70176;-38
2022/10/26 09:13:41;;;;;;;86.85;13.15;;;;;;;32.97;62.09;100530.97;5091714;27;65827;-46
2022/10/26 09:16:34;;;;;;;81.53;13.50;;;;;;;32.91;62.38;100528.16;5090441;27;70130;-38
2022/10/26 09:19:35;;;;;;;78.82;13.50;;;;;;;33.00;62.02;100541.38;5097161;27;66168;-38
2022/10/26 09:23:01;;;;;;;94.13;15.57;;;;;;;32.83;62.35;100531.25;5093001;27;69537;-39
2022/10/26 09:25:39;;;;;;;93.82;14.70;;;;;;;32.61;61.68;100492.25;5073149;27;66320;-37
2022/10/26 09:28:18;;;;;;;114.03;16.98;;;;;;;32.57;62.00;100488.34;5086990;27;70410;-38
2022/10/26 09:30:50;;;;;;;110.45;15.80;;;;;;;33.09;61.94;100567.91;5091434;27;65863;-38
2022/10/26 09:33:25;;;;;;;106.63;16.55;;;;;;;32.69;61.72;100521.75;5083166;27;70096;-38
2022/10/26 09:36:03;;;;;;;111.85;16.70;;;;;;;33.10;61.89;100595.94;5084262;27;66241;-38
2022/10/26 09:38:41;;;;;;;134.48;18.63;;;;;;;32.75;61.80;100560.69;5096050;27;69766;-37
2022/10/26 09:42:04;;;;;;;127.97;19.98;;;;;;;32.94;62.17;100619.22;5088448;27;66290;-37
2022/10/26 09:44:49;;;;;;;146.48;19.95;;;;;;;32.60;61.77;100547.63;5050412;28;70438;-37
2022/10/26 09:47:51;;;;;;;113.28;18.67;;;;;;;33.07;61.61;100634.44;5053909;28;66470;-37
2022/10/26 09:50:35;;;;;;;137.23;19.48;;;;;;;32.56;61.89;100543.72;5086428;27;69845;-37
2022/10/26 09:53:06;;;;;;;128.05;18.38;;;;;;;33.10;61.91;100620.38;5099131;27;65987;-37
2022/10/26 09:55:43;;;;;;;153.60;20.98;;;;;;;32.60;61.80;100542.19;5099160;27;69758;-39
2022/10/26 09:58:24;;;;;;;177.00;24.77;;;;;;;32.60;61.73;100553.88;5092406;27;65758;-38
2022/10/26 10:00:56;;;;;;;183.75;26.20;;;;;;;33.10;62.03;100633.97;5092654;27;70195;-38
2022/10/26 10:03:30;;;;;;;229.10;27.90;;;;;;;32.60;61.80;100547.63;5089442;27;66342;-37
2022/10/26 10:06:20;;;;;;;225.35;29.40;;;;;;;32.58;62.18;100549.75;5097069;27;70013;-38
2022/10/26 10:09:26;;;;;;;218.15;30.73;;;;;;;33.01;61.96;100613.66;5091275;27;66777;-38
2022/10/26 10:12:01;;;;;;;173.40;24.40;;;;;;;32.53;62.07;100530.63;5091889;27;69741;-38
2022/10/26 10:14:38;;;;;;;207.73;34.35;;;;;;;33.00;63.79;100617.47;5097228;27;66455;-37
2022/10/26 10:17:22;;;;;;;304.58;42.97;;;;;;;32.34;64.26;100516.34;5091922;27;69188;-38
2022/10/26 10:19:57;;;;;;;252.95;39.30;;;;;;;32.94;63.60;100601.03;5080555;27;65501;-38
2022/10/26 10:22:28;;;;;;;260.63;40.85;;;;;;;32.95;64.14;100593.69;5087995;27;70325;-38
2022/10/26 10:25:03;;;;;;;242.88;38.88;;;;;;;32.87;64.97;100603.03;5097522;27;66108;-39
2022/10/26 10:27:34;;;;;;;221.93;37.35;;;;;;;32.98;64.55;100624.97;5095868;27;69975;-40
2022/10/26 10:30:27;;;;;;;229.83;38.70;;;;;;;32.77;64.97;100610.16;5083110;27;65454;-39
2022/10/26 10:33:06;;;;;;;195.45;35.90;;;;;;;32.01;65.63;100486.09;5090409;27;70014;-39
2022/10/26 10:35:47;;;;;;;189.98;35.95;;;;;;;32.42;65.05;100549.38;5086321;27;66074;-38
2022/10/26 10:38:20;;;;;;;189.82;35.40;;;;;;;32.89;65.54;100627.25;5098360;27;69552;-39
2022/10/26 10:41:02;;;;;;;166.60;33.50;;;;;;;32.85;66.18;100621.47;5086573;27;65378;-38
2022/10/26 10:43:33;;;;;;;155.50;32.92;;;;;;;32.86;65.59;100622.31;5083401;27;70369;-38
2022/10/26 10:46:05;;;;;;;166.25;32.25;;;;;;;32.82;66.26;100637.41;5084372;27;66432;-37
2022/10/26 10:48:36;;;;;;;125.55;29.23;;;;;;;32.82;66.53;100649.13;5090046;27;69901;-39
2022/10/26 10:51:11;;;;;;;132.97;28.30;;;;;;;32.79;66.90;100652.34;5080980;27;65934;-37
2022/10/26 10:53:51;;;;;;;109.32;25.70;;;;;;;32.81;67.40;100650.19;5081302;27;70291;-37
2022/10/26 10:56:41;;;;;;;111.45;24.98;;;;;;;32.33;67.39;100575.25;5086085;27;66209;-37
2022/10/26 10:59:33;;;;;;;110.90;24.17;;;;;;;32.67;69.03;100648.78;5087579;27;70424;-39
2022/10/26 11:02:28;;;;;;;72.93;17.75;;;;;;;32.60;68.94;100645.41;5085633;27;66353;-38
2022/10/26 11:05:08;;;;;;;82.93;20.73;;;;;;;32.37;70.33;100657.03;5088419;27;70127;-38
2022/10/26 11:08:11;;;;;;;92.97;23.05;;;;;;;31.28;70.97;100516.25;5083012;27;67033;-38
2022/10/26 11:10:51;;;;;;;84.05;21.35;;;;;;;31.99;71.42;100661.84;5050154;27;70376;-37
2022/10/26 11:13:28;;;;;;;77.20;19.58;;;;;;;31.61;71.42;100616.09;5086761;27;65938;-39
2022/10/26 11:16:22;;;;;;;66.18;18.65;;;;;;;31.94;71.53;100691.56;5080607;27;69742;-38
2022/10/26 11:19:05;;;;;;;65.82;19.13;;;;;;;31.78;71.91;100684.03;5087843;27;66089;-38
2022/10/26 11:21:37;;;;;;;55.88;17.98;;;;;;;31.89;71.99;100702.25;5084994;27;70632;-37
2022/10/26 11:24:26;;;;;;;55.47;16.53;;;;;;;31.79;72.81;100718.25;5088823;27;66634;-38
2022/10/26 11:27:15;;;;;;;46.20;16.42;;;;;;;31.81;72.49;100726.97;5089393;27;70453;-39
2022/10/26 11:29:54;;;;;;;57.97;16.42;;;;;;;31.77;72.15;100736.66;5093075;27;66227;-38
2022/10/26 11:32:52;;;;;;;41.80;15.52;;;;;;;31.74;72.67;100742.53;5099636;27;69468;-37
2022/10/26 11:35:36;;;;;;;31.80;13.65;;;;;;;31.74;72.99;100767.75;5095013;27;65716;-37
2022/10/26 11:38:17;;;;;;;42.80;14.10;;;;;;;31.70;73.79;100761.13;5094586;27;70875;-38
2022/10/26 11:41:21;;;;;;;41.92;15.57;;;;;;;31.94;72.39;100756.66;5083418;27;65628;-39
2022/10/26 11:44:17;;;;;;;38.05;15.90;;;;;;;32.07;71.34;100757.50;5089803;27;70155;-38
2022/10/26 11:47:01;;;;;;;33.72;15.00;;;;;;;31.64;71.13;100677.16;5079226;27;66488;-37
2022/10/26 11:50:12;;;;;;;43.25;15.57;;;;;;;32.12;71.15;100768.50;5095594;27;69982;-39
2022/10/26 11:53:05;;;;;;;36.78;15.15;;;;;;;32.25;70.74;100790.03;5097523;27;66429;-36
2022/10/26 11:55:39;;;;;;;33.35;14.82;;;;;;;32.17;70.21;100760.50;5091679;27;70409;-39
2022/10/26 11:58:12;;;;;;;32.38;14.52;;;;;;;31.76;70.34;100694.28;5092184;27;66312;-37
2022/10/26 12:00:52;;;;;;;30.33;14.32;;;;;;;32.29;70.71;100780.38;5093872;27;69654;-36
2022/10/26 12:03:29;;;;;;;28.50;13.52;;;;;;;32.21;70.58;100761.72;5092511;27;66325;-36
2022/10/26 12:06:00;;;;;;;22.92;12.90;;;;;;;32.32;69.95;100779.91;5099685;27;69749;-37
2022/10/26 12:08:41;;;;;;;29.23;13.07;;;;;;;32.31;70.40;100777.41;5098311;27;66308;-39